Time;durP1;ratioP1;P1;durP2;ratioP2;P2;SDS_P1;SDS_P2;PMS_P1;PMS_P2;Temp;Humidity;BMP_temperature;BMP_pressure;BME280_temperature;BME280_humidity;BME280_pressure;Samples;Min_cycle;Max_cycle;Signal;HPM_P1;HPM_P2
2022/09/26 00:01:08;;;;;;;3.07;1.60;;;;;;;;;;5088099;28;21011;-67
2022/09/26 00:03:35;;;;;;;1.70;1.60;;;;;;;;;;5089581;28;20625;-67
2022/09/26 00:06:04;;;;;;;2.57;1.80;;;;;;;;;;5089106;28;20435;-67
2022/09/26 00:08:31;;;;;;;1.53;1.53;;;;;;;;;;5088496;28;20440;-67
2022/09/26 00:10:57;;;;;;;3.33;1.67;;;;;;;;;;5089161;28;20908;-67
2022/09/26 00:13:24;;;;;;;3.87;1.47;;;;;;;;;;5089025;28;20440;-66
2022/09/26 00:15:50;;;;;;;6.30;1.70;;;;;;;;;;5088921;28;20501;-67
2022/09/26 00:18:16;;;;;;;1.60;1.60;;;;;;;;;;5089440;28;20919;-67
2022/09/26 00:20:42;;;;;;;1.97;1.60;;;;;;;;;;5088926;28;20803;-67
2022/09/26 00:23:08;;;;;;;2.00;1.90;;;;;;;;;;5087405;28;20490;-66
2022/09/26 00:25:34;;;;;;;2.07;1.97;;;;;;;;;;5089129;28;20933;-67
2022/09/26 00:28:00;;;;;;;1.80;1.77;;;;;;;;;;5088942;28;20928;-67
2022/09/26 00:30:26;;;;;;;4.00;1.60;;;;;;;;;;5088159;28;20430;-67
2022/09/26 00:32:52;;;;;;;1.77;1.60;;;;;;;;;;5089612;28;20436;-67
2022/09/26 00:35:18;;;;;;;8.80;2.10;;;;;;;;;;5085560;28;20489;-67
2022/09/26 00:37:44;;;;;;;1.03;1.03;;;;;;;;;;5086690;28;20477;-67
2022/09/26 00:40:10;;;;;;;1.93;1.83;;;;;;;;;;5084648;28;20835;-67
2022/09/26 00:42:36;;;;;;;1.80;1.80;;;;;;;;;;5086521;28;20503;-67
2022/09/26 00:45:02;;;;;;;2.63;1.90;;;;;;;;;;5084759;28;20913;-67
2022/09/26 00:47:31;;;;;;;1.70;1.70;;;;;;;;;;5084070;28;20433;-67
2022/09/26 00:50:12;;;;;;;7.77;1.67;;;;;;;;;;5082621;28;20428;-67
2022/09/26 00:52:40;;;;;;;2.53;2.43;;;;;;;;;;5084569;28;20439;-67
2022/09/26 00:55:08;;;;;;;2.00;2.00;;;;;;;;;;5087127;28;20424;-67
2022/09/26 00:57:39;;;;;;;3.33;2.00;;;;;;;;;;5089112;28;20421;-67
2022/09/26 01:00:08;;;;;;;1.83;1.83;;;;;;;;;;5088657;28;20490;-67
2022/09/26 01:02:34;;;;;;;2.60;2.40;;;;;;;;;;5088194;28;20475;-67
2022/09/26 01:05:00;;;;;;;1.90;1.90;;;;;;;;;;5087118;28;20433;-67
2022/09/26 01:07:27;;;;;;;3.97;1.93;;;;;;;;;;5085486;28;20430;-67
2022/09/26 01:09:54;;;;;;;1.97;1.87;;;;;;;;;;5084678;28;20472;-67
2022/09/26 01:12:21;;;;;;;2.90;2.47;;;;;;;;;;5089429;28;20507;-67
2022/09/26 01:14:50;;;;;;;1.80;1.80;;;;;;;;;;5091647;28;20508;-67
2022/09/26 01:17:16;;;;;;;2.33;2.20;;;;;;;;;;5091669;28;20424;-67
2022/09/26 01:20:00;;;;;;;2.00;1.90;;;;;;;;;;5093169;28;20778;-67
2022/09/26 01:22:41;;;;;;;1.73;1.73;;;;;;;;;;5089450;28;20563;-67
2022/09/26 01:25:26;;;;;;;3.03;2.83;;;;;;;;;;5090686;28;20424;-67
2022/09/26 01:28:07;;;;;;;1.90;1.90;;;;;;;;;;5092374;28;20939;-67
2022/09/26 01:30:41;;;;;;;2.40;2.40;;;;;;;;;;5089882;28;20531;-67
2022/09/26 01:33:26;;;;;;;2.50;2.40;;;;;;;;;;5090925;28;20429;-67
2022/09/26 01:36:10;;;;;;;1.53;1.53;;;;;;;;;;5090775;28;20428;-67
2022/09/26 01:38:39;;;;;;;3.83;2.30;;;;;;;;;;5091506;28;20432;-67
2022/09/26 01:41:05;;;;;;;2.40;2.30;;;;;;;;;;5089822;28;20443;-67
2022/09/26 01:43:50;;;;;;;1.90;1.90;;;;;;;;;;5091535;28;20500;-67
2022/09/26 01:46:38;;;;;;;2.47;2.47;;;;;;;;;;5091667;28;20456;-67
2022/09/26 01:49:37;;;;;;;2.50;1.77;;;;;;;;;;5091764;28;20453;-67
2022/09/26 01:52:23;;;;;;;3.10;3.00;;;;;;;;;;5056509;28;20433;-67
2022/09/26 01:55:06;;;;;;;2.23;2.00;;;;;;;;;;5091022;28;20907;-67
2022/09/26 01:57:51;;;;;;;2.60;2.50;;;;;;;;;;5090470;28;20444;-67
2022/09/26 02:00:17;;;;;;;1.80;1.80;;;;;;;;;;5088650;28;20545;-67
2022/09/26 02:02:45;;;;;;;2.37;2.13;;;;;;;;;;5090586;28;20488;-67
2022/09/26 02:05:14;;;;;;;2.43;2.43;;;;;;;;;;5092093;28;20440;-67
2022/09/26 02:07:46;;;;;;;2.43;2.00;;;;;;;;;;5091817;28;20443;-67
2022/09/26 02:10:14;;;;;;;2.80;2.70;;;;;;;;;;5091608;28;20428;-67
2022/09/26 02:12:41;;;;;;;2.57;2.47;;;;;;;;;;5091744;28;20856;-67
2022/09/26 02:15:10;;;;;;;2.30;2.30;;;;;;;;;;5090745;28;20785;-67
2022/09/26 02:17:39;;;;;;;2.20;2.20;;;;;;;;;;5089850;28;20439;-67
2022/09/26 02:20:06;;;;;;;1.93;1.83;;;;;;;;;;5089360;28;20437;-67
2022/09/26 02:22:34;;;;;;;2.70;2.63;;;;;;;;;;5090201;28;20634;-67
2022/09/26 02:25:00;;;;;;;3.70;2.13;;;;;;;;;;5089718;28;20435;-67
2022/09/26 02:27:27;;;;;;;2.63;2.43;;;;;;;;;;5089192;28;20433;-67
2022/09/26 02:29:53;;;;;;;2.33;2.33;;;;;;;;;;5089353;28;20467;-67
2022/09/26 02:32:21;;;;;;;7.80;3.57;;;;;;;;;;5091178;28;20515;-67
2022/09/26 02:34:48;;;;;;;3.17;2.27;;;;;;;;;;5091777;28;20417;-67
2022/09/26 02:37:17;;;;;;;2.50;2.40;;;;;;;;;;5091714;28;20421;-67
2022/09/26 02:39:44;;;;;;;2.10;2.10;;;;;;;;;;5091927;28;20438;-67
2022/09/26 02:42:35;;;;;;;3.20;3.03;;;;;;;;;;5091004;28;20470;-67
2022/09/26 02:45:04;;;;;;;3.80;2.07;;;;;;;;;;5090461;28;20447;-67
2022/09/26 02:47:30;;;;;;;1.90;1.90;;;;;;;;;;5091704;28;20421;-67
2022/09/26 02:50:11;;;;;;;10.83;3.70;;;;;;;;;;5088704;28;20417;-67
2022/09/26 02:52:40;;;;;;;3.77;2.90;;;;;;;;;;5091398;28;20524;-67
2022/09/26 02:55:06;;;;;;;3.03;2.93;;;;;;;;;;5091155;28;20428;-67
2022/09/26 02:57:51;;;;;;;2.63;2.53;;;;;;;;;;5090934;28;20431;-66
2022/09/26 03:00:24;;;;;;;2.47;2.37;;;;;;;;;;5089746;28;20479;-67
2022/09/26 03:02:57;;;;;;;2.70;2.60;;;;;;;;;;5090363;28;21572;-67
2022/09/26 03:05:24;;;;;;;2.67;2.57;;;;;;;;;;5090932;28;20935;-66
2022/09/26 03:07:55;;;;;;;14.30;2.60;;;;;;;;;;5090990;28;20424;-67
2022/09/26 03:10:21;;;;;;;2.60;2.50;;;;;;;;;;5090582;28;20557;-67
2022/09/26 03:12:48;;;;;;;3.90;2.53;;;;;;;;;;5090260;28;20933;-67
2022/09/26 03:15:15;;;;;;;2.50;2.50;;;;;;;;;;5090109;28;20933;-66
2022/09/26 03:17:43;;;;;;;2.40;2.30;;;;;;;;;;5089430;28;20425;-67
2022/09/26 03:20:20;;;;;;;3.13;2.30;;;;;;;;;;5090185;28;20424;-67
2022/09/26 03:22:46;;;;;;;2.73;2.63;;;;;;;;;;5090804;28;20888;-67
2022/09/26 03:25:20;;;;;;;2.93;2.83;;;;;;;;;;5090379;28;20817;-67
2022/09/26 03:27:46;;;;;;;6.30;3.10;;;;;;;;;;5090118;28;20420;-67
2022/09/26 03:30:13;;;;;;;2.93;2.80;;;;;;;;;;5090763;28;20424;-67
2022/09/26 03:32:39;;;;;;;3.13;2.83;;;;;;;;;;5090694;28;20558;-67
2022/09/26 03:35:06;;;;;;;3.40;3.10;;;;;;;;;;5088519;28;20512;-67
2022/09/26 03:37:33;;;;;;;6.63;3.47;;;;;;;;;;5089797;28;20427;-66
2022/09/26 03:39:59;;;;;;;3.80;3.70;;;;;;;;;;5088759;28;20436;-67
2022/09/26 03:42:26;;;;;;;2.80;2.67;;;;;;;;;;5090131;28;21001;-67
2022/09/26 03:44:52;;;;;;;3.70;3.60;;;;;;;;;;5089486;28;20471;-67
2022/09/26 03:47:18;;;;;;;3.67;3.47;;;;;;;;;;5089543;28;21035;-67
2022/09/26 03:49:44;;;;;;;3.20;3.00;;;;;;;;;;5089701;28;20516;-67
2022/09/26 03:52:11;;;;;;;5.43;3.30;;;;;;;;;;5089064;28;20673;-67
2022/09/26 03:54:37;;;;;;;2.83;2.73;;;;;;;;;;5090457;28;20432;-67
2022/09/26 03:57:03;;;;;;;2.80;2.70;;;;;;;;;;5087862;28;20482;-67
2022/09/26 03:59:29;;;;;;;2.63;2.57;;;;;;;;;;5089085;28;20988;-67
2022/09/26 04:01:55;;;;;;;2.93;2.83;;;;;;;;;;5088909;28;20498;-67
2022/09/26 04:04:21;;;;;;;4.73;3.00;;;;;;;;;;5089338;28;20509;-67
2022/09/26 04:06:49;;;;;;;2.60;2.50;;;;;;;;;;5090170;28;20919;-67
2022/09/26 04:09:16;;;;;;;6.33;2.70;;;;;;;;;;5089273;28;20440;-67
2022/09/26 04:11:42;;;;;;;3.23;2.93;;;;;;;;;;5089782;28;20409;-67
2022/09/26 04:14:08;;;;;;;2.80;2.70;;;;;;;;;;5088910;28;20458;-67
2022/09/26 04:16:35;;;;;;;2.70;2.70;;;;;;;;;;5088669;28;20516;-67
2022/09/26 04:19:02;;;;;;;4.93;2.73;;;;;;;;;;5089358;28;20439;-67
2022/09/26 04:21:28;;;;;;;3.27;3.10;;;;;;;;;;5088726;28;20434;-67
2022/09/26 04:23:55;;;;;;;2.43;2.33;;;;;;;;;;5089813;28;20516;-67
2022/09/26 04:26:22;;;;;;;5.60;3.33;;;;;;;;;;5085901;28;20436;-67
2022/09/26 04:28:50;;;;;;;3.33;3.13;;;;;;;;;;5089090;28;20425;-67
2022/09/26 04:31:17;;;;;;;4.13;3.83;;;;;;;;;;5088918;28;20841;-67
2022/09/26 04:33:44;;;;;;;3.27;2.57;;;;;;;;;;5089740;28;20444;-67
2022/09/26 04:36:11;;;;;;;2.60;2.40;;;;;;;;;;5087961;28;20506;-67
2022/09/26 04:38:38;;;;;;;2.87;2.77;;;;;;;;;;5088898;28;20429;-67
2022/09/26 04:41:11;;;;;;;4.50;2.10;;;;;;;;;;5089454;28;20412;-67
2022/09/26 04:43:38;;;;;;;1.60;1.60;;;;;;;;;;5089208;28;20476;-67
2022/09/26 04:46:12;;;;;;;1.17;1.17;;;;;;;;;;5089772;28;20747;-67
2022/09/26 04:48:38;;;;;;;1.10;1.10;;;;;;;;;;5093886;28;20488;-67
2022/09/26 04:51:08;;;;;;;0.93;0.93;;;;;;;;;;5093344;28;20417;-67
2022/09/26 04:53:35;;;;;;;1.50;1.50;;;;;;;;;;5092493;28;20425;-67
2022/09/26 04:56:01;;;;;;;1.90;1.07;;;;;;;;;;5092970;28;20813;-66
2022/09/26 04:58:27;;;;;;;2.77;2.57;;;;;;;;;;5092853;28;20488;-67
2022/09/26 05:00:53;;;;;;;1.17;1.17;;;;;;;;;;5093127;28;20471;-67
2022/09/26 05:03:19;;;;;;;1.10;1.10;;;;;;;;;;5093516;28;20472;-67
2022/09/26 05:05:49;;;;;;;3.30;1.40;;;;;;;;;;5092297;28;20428;-68
2022/09/26 05:08:15;;;;;;;1.80;1.70;;;;;;;;;;5093484;28;20940;-67
2022/09/26 05:10:42;;;;;;;1.90;1.80;;;;;;;;;;5092996;28;20497;-67
2022/09/26 05:13:08;;;;;;;4.43;2.30;;;;;;;;;;5086692;28;20508;-67
2022/09/26 05:15:38;;;;;;;3.17;2.87;;;;;;;;;;5090786;28;20477;-67
2022/09/26 05:18:06;;;;;;;3.30;3.03;;;;;;;;;;5091483;28;20452;-67
2022/09/26 05:20:32;;;;;;;4.13;2.93;;;;;;;;;;5092084;28;20554;-67
2022/09/26 05:22:58;;;;;;;5.13;4.63;;;;;;;;;;5090412;28;20998;-67
2022/09/26 05:28:10;;;;;;;3.63;3.33;;;;;;;;;;5091898;28;20403;-66
2022/09/26 05:30:35;;;;;;;6.40;2.47;;;;;;;;;;5090365;28;20436;-67
2022/09/26 05:33:01;;;;;;;2.90;2.67;;;;;;;;;;5086164;28;20442;-67
2022/09/26 05:35:27;;;;;;;4.03;3.80;;;;;;;;;;5092116;28;20507;-67
2022/09/26 05:38:03;;;;;;;8.50;3.60;;;;;;;;;;5089980;28;20425;-67
2022/09/26 05:43:15;;;;;;;4.20;3.93;;;;;;;;;;5089607;28;20524;-67
2022/09/26 05:45:41;;;;;;;4.63;4.13;;;;;;;;;;5090325;28;20441;-68
2022/09/26 05:48:08;;;;;;;4.13;3.93;;;;;;;;;;5090257;28;20515;-66
2022/09/26 05:50:34;;;;;;;3.13;3.10;;;;;;;;;;5090155;28;20928;-67
2022/09/26 05:53:00;;;;;;;2.80;2.40;;;;;;;;;;5091317;28;20802;-67
2022/09/26 05:55:27;;;;;;;3.07;2.80;;;;;;;;;;5091002;28;20808;-76
2022/09/26 05:57:54;;;;;;;3.30;3.20;;;;;;;;;;5089893;28;20440;-68
2022/09/26 06:00:20;;;;;;;6.03;3.23;;;;;;;;;;5090974;28;20506;-67
2022/09/26 06:02:53;;;;;;;2.53;2.43;;;;;;;;;;5090654;28;20554;-69
2022/09/26 06:05:19;;;;;;;1.90;1.90;;;;;;;;;;5088803;28;20435;-68
2022/09/26 06:07:45;;;;;;;2.70;2.60;;;;;;;;;;5090025;28;20444;-68
2022/09/26 06:10:11;;;;;;;4.27;3.97;;;;;;;;;;5090766;28;20944;-68
2022/09/26 06:12:37;;;;;;;3.27;3.17;;;;;;;;;;5089777;28;20439;-68
2022/09/26 06:15:04;;;;;;;4.40;2.50;;;;;;;;;;5071319;28;20928;-67
2022/09/26 06:17:31;;;;;;;4.10;3.67;;;;;;;;;;5089707;28;20440;-69
2022/09/26 06:19:57;;;;;;;7.50;5.83;;;;;;;;;;5090085;28;20523;-67
2022/09/26 06:22:23;;;;;;;3.97;3.80;;;;;;;;;;5085182;28;20567;-67
2022/09/26 06:24:49;;;;;;;3.80;3.53;;;;;;;;;;5090345;28;20445;-68
2022/09/26 06:27:15;;;;;;;4.93;3.53;;;;;;;;;;5089490;28;20494;-68
2022/09/26 06:29:41;;;;;;;3.60;3.33;;;;;;;;;;5090331;28;20428;-67
2022/09/26 06:32:07;;;;;;;2.90;2.80;;;;;;;;;;5088889;28;20515;-67
2022/09/26 06:34:33;;;;;;;3.20;3.07;;;;;;;;;;5089273;28;20443;-67
2022/09/26 06:36:59;;;;;;;3.00;2.90;;;;;;;;;;5087800;28;20432;-68
2022/09/26 06:39:34;;;;;;;2.93;2.83;;;;;;;;;;5091337;28;20425;-67
2022/09/26 06:42:00;;;;;;;3.70;3.40;;;;;;;;;;5088498;28;20432;-67
2022/09/26 06:44:27;;;;;;;3.87;3.73;;;;;;;;;;5088639;28;20795;-68
2022/09/26 06:46:53;;;;;;;3.97;3.73;;;;;;;;;;5090364;28;20421;-67
2022/09/26 06:49:19;;;;;;;3.57;3.47;;;;;;;;;;5088062;28;20460;-68
2022/09/26 06:51:48;;;;;;;3.50;3.30;;;;;;;;;;5089265;28;20439;-67
2022/09/26 06:54:14;;;;;;;3.70;3.60;;;;;;;;;;5089944;28;20525;-68
2022/09/26 06:56:40;;;;;;;3.63;3.40;;;;;;;;;;5088185;28;20928;-69
2022/09/26 06:59:06;;;;;;;4.10;3.90;;;;;;;;;;5089595;28;20483;-68
2022/09/26 07:01:31;;;;;;;4.43;4.23;;;;;;;;;;5089514;28;20904;-67
2022/09/26 07:03:57;;;;;;;3.80;3.60;;;;;;;;;;5088866;28;20587;-68
2022/09/26 07:06:23;;;;;;;4.00;3.80;;;;;;;;;;5087394;28;20440;-68
2022/09/26 07:08:50;;;;;;;4.70;4.40;;;;;;;;;;5089055;28;20433;-67
2022/09/26 07:11:16;;;;;;;4.47;4.27;;;;;;;;;;5088871;28;20463;-69
2022/09/26 07:13:44;;;;;;;4.63;4.27;;;;;;;;;;5087694;28;20915;-68
2022/09/26 07:16:11;;;;;;;6.97;5.80;;;;;;;;;;5089936;28;20923;-68
2022/09/26 07:18:38;;;;;;;5.40;5.10;;;;;;;;;;5090016;28;20552;-68
2022/09/26 07:21:05;;;;;;;4.57;4.33;;;;;;;;;;5088904;28;20942;-68
2022/09/26 07:23:31;;;;;;;5.60;5.30;;;;;;;;;;5088716;28;21003;-67
2022/09/26 07:25:57;;;;;;;5.50;5.00;;;;;;;;;;5089812;28;20469;-68
2022/09/26 07:28:24;;;;;;;8.33;5.20;;;;;;;;;;5088130;28;20512;-68
2022/09/26 07:30:50;;;;;;;5.63;5.23;;;;;;;;;;5089480;28;20460;-67
2022/09/26 07:33:16;;;;;;;4.20;4.10;;;;;;;;;;5086214;28;20479;-67
2022/09/26 07:35:43;;;;;;;5.40;4.97;;;;;;;;;;5089893;28;20485;-67
2022/09/26 07:38:11;;;;;;;5.40;5.00;;;;;;;;;;5088348;28;21028;-67
2022/09/26 07:40:38;;;;;;;5.30;4.90;;;;;;;;;;5088742;28;20805;-68
2022/09/26 07:43:04;;;;;;;5.30;5.00;;;;;;;;;;5087850;28;20526;-68
2022/09/26 07:51:10;;;;;;;5.40;4.90;;;;;;;;;;5087070;28;20478;-66
2022/09/26 07:53:40;;;;;;;5.03;4.70;;;;;;;;;;5087286;28;20822;-67
2022/09/26 07:56:09;;;;;;;4.33;4.00;;;;;;;;;;5088879;28;20830;-67
2022/09/26 07:58:39;;;;;;;5.20;5.00;;;;;;;;;;5085543;28;20428;-66
2022/09/26 08:01:06;;;;;;;5.50;5.13;;;;;;;;;;5083220;28;20467;-68
2022/09/26 08:03:33;;;;;;;6.00;5.57;;;;;;;;;;5088275;28;20476;-67
2022/09/26 08:06:00;;;;;;;11.33;5.10;;;;;;;;;;5087839;28;20421;-67
2022/09/26 08:08:26;;;;;;;5.40;5.10;;;;;;;;;;5086899;28;20483;-68
2022/09/26 08:10:52;;;;;;;5.80;5.30;;;;;;;;;;5079174;28;20424;-67
2022/09/26 08:13:18;;;;;;;6.27;5.77;;;;;;;;;;5079702;28;20424;-67
2022/09/26 08:15:44;;;;;;;5.47;4.93;;;;;;;;;;5086865;28;20425;-67
2022/09/26 08:18:10;;;;;;;5.47;5.07;;;;;;;;;;5087821;28;20723;-67
2022/09/26 08:20:36;;;;;;;8.67;5.70;;;;;;;;;;5088373;28;20473;-68
2022/09/26 08:23:02;;;;;;;5.60;5.10;;;;;;;;;;5088753;28;20484;-66
2022/09/26 08:25:28;;;;;;;7.07;6.57;;;;;;;;;;5089073;28;20420;-68
2022/09/26 08:27:58;;;;;;;5.30;5.00;;;;;;;;;;5089080;28;20436;-69
2022/09/26 08:30:26;;;;;;;4.80;4.47;;;;;;;;;;5087684;28;20477;-67
2022/09/26 08:32:53;;;;;;;9.00;5.77;;;;;;;;;;5088370;28;20421;-68
2022/09/26 08:35:19;;;;;;;4.90;4.63;;;;;;;;;;5089111;28;20455;-68
2022/09/26 08:37:45;;;;;;;5.13;4.83;;;;;;;;;;5089571;28;20412;-68
2022/09/26 08:40:11;;;;;;;6.13;5.53;;;;;;;;;;5088577;28;20432;-68
2022/09/26 08:42:50;;;;;;;6.23;5.60;;;;;;;;;;5085674;28;20480;-68
2022/09/26 08:48:13;;;;;;;5.53;5.13;;;;;;;;;;5077526;28;20517;-68
2022/09/26 08:50:44;;;;;;;5.33;4.73;;;;;;;;;;5086267;28;20955;-70
2022/09/26 08:53:15;;;;;;;4.47;4.20;;;;;;;;;;5086769;28;20913;-67
2022/09/26 08:55:42;;;;;;;7.07;4.90;;;;;;;;;;5084445;28;20429;-67
2022/09/26 08:58:19;;;;;;;6.40;4.97;;;;;;;;;;5087932;28;20508;-67
2022/09/26 09:00:46;;;;;;;5.40;5.00;;;;;;;;;;5085704;28;20555;-66
2022/09/26 09:03:24;;;;;;;4.50;4.40;;;;;;;;;;5086683;28;20586;-67
2022/09/26 09:05:58;;;;;;;3.90;3.70;;;;;;;;;;5087914;28;20417;-66
2022/09/26 09:08:34;;;;;;;4.27;3.97;;;;;;;;;;5088114;28;20423;-67
2022/09/26 09:11:12;;;;;;;3.83;3.23;;;;;;;;;;5077343;28;20440;-67
2022/09/26 09:13:56;;;;;;;3.63;3.37;;;;;;;;;;5084084;28;20425;-67
2022/09/26 09:16:25;;;;;;;3.93;3.73;;;;;;;;;;5087162;28;20432;-67
2022/09/26 09:18:59;;;;;;;4.07;3.70;;;;;;;;;;5087186;28;20456;-67
2022/09/26 09:21:31;;;;;;;3.90;3.67;;;;;;;;;;5088516;28;20681;-67
2022/09/26 09:24:16;;;;;;;4.57;3.37;;;;;;;;;;5088358;28;20529;-67
2022/09/26 09:27:00;;;;;;;3.67;3.57;;;;;;;;;;5086753;28;20789;-67
2022/09/26 09:29:48;;;;;;;3.07;2.97;;;;;;;;;;5085966;28;21008;-66
2022/09/26 09:32:16;;;;;;;5.13;4.67;;;;;;;;;;5087514;28;20442;-67
2022/09/26 09:34:44;;;;;;;5.53;4.47;;;;;;;;;;5091459;28;20440;-67
2022/09/26 09:37:13;;;;;;;4.60;4.20;;;;;;;;;;5091764;28;20979;-67
2022/09/26 09:39:42;;;;;;;5.40;3.97;;;;;;;;;;5073924;28;20802;-71
2022/09/26 09:42:21;;;;;;;3.50;3.17;;;;;;;;;;5091860;28;20420;-67
2022/09/26 09:44:54;;;;;;;3.80;3.60;;;;;;;;;;5090850;28;20436;-67
2022/09/26 09:47:21;;;;;;;4.80;3.87;;;;;;;;;;5087458;28;20468;-66
2022/09/26 09:49:48;;;;;;;8.07;3.83;;;;;;;;;;5089195;28;20428;-67
2022/09/26 09:52:32;;;;;;;3.30;3.13;;;;;;;;;;5087712;28;20474;-67
2022/09/26 09:55:01;;;;;;;3.10;3.00;;;;;;;;;;5088186;28;20481;-66
2022/09/26 09:57:47;;;;;;;2.80;2.70;;;;;;;;;;5090593;28;20460;-67
2022/09/26 10:00:24;;;;;;;3.80;2.90;;;;;;;;;;5089904;28;20532;-66
2022/09/26 10:03:01;;;;;;;2.97;2.77;;;;;;;;;;5091722;28;21067;-67
2022/09/26 10:05:32;;;;;;;6.00;2.97;;;;;;;;;;5089200;28;20447;-66
2022/09/26 10:08:00;;;;;;;3.03;2.93;;;;;;;;;;5090432;28;20481;-67
2022/09/26 10:10:37;;;;;;;2.30;2.20;;;;;;;;;;5090447;28;21194;-66
2022/09/26 10:13:04;;;;;;;3.13;2.83;;;;;;;;;;5089451;28;20516;-67
2022/09/26 10:15:31;;;;;;;1.80;1.80;;;;;;;;;;5089428;28;20424;-67
2022/09/26 10:18:04;;;;;;;2.63;2.20;;;;;;;;;;5090455;28;20786;-67
2022/09/26 10:20:34;;;;;;;2.00;1.90;;;;;;;;;;5090323;28;20951;-67
2022/09/26 10:23:02;;;;;;;1.97;1.87;;;;;;;;;;5088420;28;20549;-67
2022/09/26 10:25:28;;;;;;;1.37;1.37;;;;;;;;;;5071667;28;20436;-69
2022/09/26 10:27:55;;;;;;;2.20;1.63;;;;;;;;;;5088366;28;20945;-68
2022/09/26 10:30:24;;;;;;;1.30;1.30;;;;;;;;;;5090178;28;20797;-68
2022/09/26 10:32:52;;;;;;;2.03;1.63;;;;;;;;;;5088961;28;21083;-69
2022/09/26 10:35:23;;;;;;;1.30;1.30;;;;;;;;;;5091728;28;20459;-69
2022/09/26 10:37:58;;;;;;;1.67;1.57;;;;;;;;;;5084926;28;20532;-69
2022/09/26 10:40:44;;;;;;;1.37;1.37;;;;;;;;;;5090327;28;20440;-68
2022/09/26 10:43:24;;;;;;;2.67;1.40;;;;;;;;;;5089347;28;20479;-68
2022/09/26 10:45:59;;;;;;;1.97;1.50;;;;;;;;;;5090148;28;20443;-68
2022/09/26 10:48:33;;;;;;;2.50;1.50;;;;;;;;;;5087401;28;20485;-69
2022/09/26 10:51:00;;;;;;;2.40;1.60;;;;;;;;;;5088036;28;20433;-68
2022/09/26 10:53:30;;;;;;;2.10;0.90;;;;;;;;;;5088068;28;20482;-68
2022/09/26 10:56:00;;;;;;;1.27;1.27;;;;;;;;;;5088671;28;20843;-68
2022/09/26 10:58:28;;;;;;;1.43;1.30;;;;;;;;;;5087130;28;20431;-68
2022/09/26 11:00:56;;;;;;;3.00;1.63;;;;;;;;;;5079447;28;21059;-69
2022/09/26 11:03:33;;;;;;;3.03;1.47;;;;;;;;;;5088057;28;20549;-68
2022/09/26 11:05:59;;;;;;;1.90;1.40;;;;;;;;;;5089113;28;20432;-68
2022/09/26 11:08:29;;;;;;;1.50;1.50;;;;;;;;;;5090237;28;20997;-68
2022/09/26 11:10:59;;;;;;;3.40;1.57;;;;;;;;;;5089867;28;20423;-68
2022/09/26 11:13:31;;;;;;;1.70;1.13;;;;;;;;;;5090598;28;20505;-68
2022/09/26 11:16:00;;;;;;;4.83;1.10;;;;;;;;;;5087762;28;20952;-68
2022/09/26 11:18:42;;;;;;;2.60;1.50;;;;;;;;;;5089053;28;20921;-68
2022/09/26 11:21:27;;;;;;;1.07;1.07;;;;;;;;;;5087820;28;20900;-68
2022/09/26 11:24:02;;;;;;;3.43;1.63;;;;;;;;;;5085397;28;20491;-68
2022/09/26 11:26:28;;;;;;;1.93;1.20;;;;;;;;;;5087260;28;20424;-68
2022/09/26 11:29:05;;;;;;;1.37;1.27;;;;;;;;;;5088306;28;20502;-68
2022/09/26 11:31:35;;;;;;;1.53;1.17;;;;;;;;;;5090190;28;20440;-68
2022/09/26 11:34:03;;;;;;;1.37;1.27;;;;;;;;;;5088312;28;20468;-68
2022/09/26 11:36:34;;;;;;;7.20;1.67;;;;;;;;;;5087122;28;20439;-68
2022/09/26 11:39:05;;;;;;;4.23;1.20;;;;;;;;;;5086891;28;20622;-69
2022/09/26 11:41:51;;;;;;;1.60;1.10;;;;;;;;;;5086830;28;20451;-69
2022/09/26 11:44:31;;;;;;;3.77;1.10;;;;;;;;;;5090703;28;20487;-68
2022/09/26 11:47:15;;;;;;;1.10;1.00;;;;;;;;;;5087314;28;20458;-68
2022/09/26 11:49:52;;;;;;;0.90;0.90;;;;;;;;;;5088917;28;20439;-69
2022/09/26 11:52:18;;;;;;;0.97;0.90;;;;;;;;;;5087309;28;20444;-69
2022/09/26 11:55:03;;;;;;;1.40;1.30;;;;;;;;;;5086505;28;20424;-69
2022/09/26 11:57:55;;;;;;;2.30;1.20;;;;;;;;;;5088186;28;20428;-68
2022/09/26 12:00:28;;;;;;;9.57;1.57;;;;;;;;;;5088395;28;20510;-68
2022/09/26 12:03:00;;;;;;;1.00;1.00;;;;;;;;;;5087614;28;20523;-68
2022/09/26 12:05:34;;;;;;;1.13;0.87;;;;;;;;;;5088737;28;20438;-68
2022/09/26 12:08:00;;;;;;;3.30;1.27;;;;;;;;;;5086979;28;20958;-69
2022/09/26 12:10:26;;;;;;;2.03;1.50;;;;;;;;;;5087363;28;20425;-68
2022/09/26 12:13:02;;;;;;;1.70;1.13;;;;;;;;;;5086695;28;20198;-69
2022/09/26 12:15:50;;;;;;;3.13;0.80;;;;;;;;;;5087274;28;20182;-68
2022/09/26 12:18:25;;;;;;;2.77;1.60;;;;;;;;;;5086835;28;21106;-69
2022/09/26 12:21:09;;;;;;;1.80;1.20;;;;;;;;;;5084124;28;20428;-68
2022/09/26 12:23:40;;;;;;;7.13;1.67;;;;;;;;;;5089034;28;20476;-70
2022/09/26 12:26:09;;;;;;;1.13;1.00;;;;;;;;;;5087350;28;20527;-68
2022/09/26 12:28:50;;;;;;;1.43;1.37;;;;;;;;;;5087516;28;20807;-67
2022/09/26 12:31:24;;;;;;;1.63;1.63;;;;;;;;;;5086241;28;20968;-68
2022/09/26 12:33:50;;;;;;;1.53;1.53;;;;;;;;;;5087361;28;20420;-69
2022/09/26 12:36:30;;;;;;;3.60;1.50;;;;;;;;;;5087948;28;20493;-68
2022/09/26 12:39:16;;;;;;;1.67;1.57;;;;;;;;;;5086532;28;20510;-69
2022/09/26 12:41:50;;;;;;;2.13;1.50;;;;;;;;;;5088021;28;20459;-69
2022/09/26 12:44:40;;;;;;;1.97;1.87;;;;;;;;;;5087007;28;20831;-68
2022/09/26 12:47:14;;;;;;;1.60;1.50;;;;;;;;;;5087209;28;20435;-68
2022/09/26 12:49:53;;;;;;;2.20;1.70;;;;;;;;;;5086132;28;20435;-69
2022/09/26 12:52:58;;;;;;;1.83;1.83;;;;;;;;;;5086991;28;20436;-68
2022/09/26 12:55:43;;;;;;;4.00;1.70;;;;;;;;;;5085094;28;20421;-69
2022/09/26 12:58:20;;;;;;;6.40;5.80;;;;;;;;;;5088097;28;20428;-69
2022/09/26 13:00:55;;;;;;;2.37;2.30;;;;;;;;;;5086347;28;20738;-69
2022/09/26 13:03:21;;;;;;;1.17;1.17;;;;;;;;;;5086943;28;20468;-68
2022/09/26 13:06:06;;;;;;;1.80;1.70;;;;;;;;;;5084478;28;20428;-68
2022/09/26 13:08:52;;;;;;;7.60;3.57;;;;;;;;;;5090768;28;20186;-69
2022/09/26 13:11:29;;;;;;;0.90;0.90;;;;;;;;;;5070202;28;21045;-69
2022/09/26 13:14:11;;;;;;;0.90;0.90;;;;;;;;;;5092340;28;20404;-69
2022/09/26 13:16:37;;;;;;;2.57;1.70;;;;;;;;;;5091920;28;20519;-68
2022/09/26 13:19:23;;;;;;;1.60;1.50;;;;;;;;;;5089825;28;20466;-69
2022/09/26 13:21:58;;;;;;;1.97;1.70;;;;;;;;;;5039641;28;20436;-68
2022/09/26 13:24:25;;;;;;;0.90;0.90;;;;;;;;;;5090810;28;20475;-69
2022/09/26 13:26:56;;;;;;;1.60;1.50;;;;;;;;;;5088805;28;20428;-67
2022/09/26 13:29:36;;;;;;;1.40;1.40;;;;;;;;;;5091258;28;20443;-69
2022/09/26 13:32:24;;;;;;;2.53;1.30;;;;;;;;;;5091523;28;20481;-69
2022/09/26 13:35:15;;;;;;;4.47;0.97;;;;;;;;;;5090657;28;20436;-68
2022/09/26 13:37:52;;;;;;;1.00;1.00;;;;;;;;;;5083317;28;20459;-68
2022/09/26 13:40:21;;;;;;;1.13;1.13;;;;;;;;;;5090094;28;20432;-68
2022/09/26 13:42:50;;;;;;;2.27;1.40;;;;;;;;;;5090350;28;20957;-69
2022/09/26 13:45:16;;;;;;;1.63;1.57;;;;;;;;;;5091426;28;20432;-69
2022/09/26 13:47:50;;;;;;;0.87;0.87;;;;;;;;;;5090423;28;20432;-69
2022/09/26 13:50:25;;;;;;;1.27;1.20;;;;;;;;;;5089546;28;20466;-68
2022/09/26 13:53:09;;;;;;;1.03;1.00;;;;;;;;;;5091092;28;20509;-68
2022/09/26 13:55:35;;;;;;;2.50;2.40;;;;;;;;;;5091729;28;20447;-68
2022/09/26 13:58:23;;;;;;;1.33;1.13;;;;;;;;;;5088645;28;21003;-68
2022/09/26 14:00:52;;;;;;;1.90;1.90;;;;;;;;;;5084480;28;20840;-67
2022/09/26 14:03:18;;;;;;;2.40;1.17;;;;;;;;;;5069426;28;20481;-67
2022/09/26 14:05:45;;;;;;;1.00;1.00;;;;;;;;;;5067864;28;20433;-68
2022/09/26 14:11:34;;;;;;;0.80;0.80;;;;;;;;;;5068325;28;20559;-67
2022/09/26 14:14:19;;;;;;;0.60;0.60;;;;;;;;;;5087322;28;20430;-68
2022/09/26 14:16:46;;;;;;;0.93;0.93;;;;;;;;;;5069351;28;20948;-68
2022/09/26 14:19:19;;;;;;;6.80;1.43;;;;;;;;;;5069267;28;20490;-68
2022/09/26 14:21:54;;;;;;;0.83;0.83;;;;;;;;;;5069034;28;20438;-68
2022/09/26 14:24:20;;;;;;;1.50;1.50;;;;;;;;;;5085364;28;21180;-68
2022/09/26 14:26:50;;;;;;;2.93;1.20;;;;;;;;;;5068382;28;20520;-67
2022/09/26 14:29:28;;;;;;;1.13;1.13;;;;;;;;;;5086505;28;20433;-69
2022/09/26 14:32:00;;;;;;;9.33;2.13;;;;;;;;;;5070481;28;20913;-67
2022/09/26 14:34:29;;;;;;;27.60;4.03;;;;;;;;;;5070583;28;20429;-68
2022/09/26 14:36:57;;;;;;;21.17;3.97;;;;;;;;;;5086366;28;20414;-68
2022/09/26 14:39:30;;;;;;;1.07;1.07;;;;;;;;;;5068464;28;20520;-68
2022/09/26 14:41:58;;;;;;;0.90;0.90;;;;;;;;;;5070755;28;20409;-68
2022/09/26 14:44:28;;;;;;;0.97;0.90;;;;;;;;;;5071552;28;20838;-68
2022/09/26 14:46:55;;;;;;;5.43;1.10;;;;;;;;;;5070736;28;20426;-68
2022/09/26 14:49:23;;;;;;;1.47;1.47;;;;;;;;;;5070140;28;20426;-68
2022/09/26 14:51:50;;;;;;;3.70;1.40;;;;;;;;;;5070766;28;20425;-70
2022/09/26 14:54:23;;;;;;;1.63;1.57;;;;;;;;;;5071336;28;20458;-68
2022/09/26 14:57:09;;;;;;;1.53;1.43;;;;;;;;;;5070779;28;20784;-68
2022/09/26 14:59:37;;;;;;;2.97;1.53;;;;;;;;;;5077722;28;20827;-67
2022/09/26 15:02:24;;;;;;;1.90;1.80;;;;;;;;;;5089869;28;20953;-68
2022/09/26 15:04:59;;;;;;;2.40;2.27;;;;;;;;;;5072037;28;20956;-67
2022/09/26 15:07:26;;;;;;;2.00;1.90;;;;;;;;;;5091088;28;20781;-68
2022/09/26 15:09:55;;;;;;;2.70;1.23;;;;;;;;;;5090649;28;20440;-69
2022/09/26 15:12:33;;;;;;;1.60;1.50;;;;;;;;;;5089164;28;20455;-69
2022/09/26 15:14:59;;;;;;;1.50;1.40;;;;;;;;;;5087833;28;20421;-68
2022/09/26 15:17:30;;;;;;;2.20;1.30;;;;;;;;;;5090831;28;20428;-69
2022/09/26 15:19:58;;;;;;;1.57;1.03;;;;;;;;;;5089695;28;20187;-69
2022/09/26 15:22:25;;;;;;;3.90;0.80;;;;;;;;;;5090915;28;20467;-68